sensor_id;sensor_type;location;lat;lon;timestamp;P1;durP1;ratioP1;P2;durP2;ratioP2
8074;SDS011;4080;42.676;23.372;2023-05-16T00:01:46;19.37;;;17.43;;
8074;SDS011;4080;42.676;23.372;2023-05-16T00:04:12;20.13;;;17.83;;
8074;SDS011;4080;42.676;23.372;2023-05-16T00:06:39;20.67;;;18.17;;
8074;SDS011;4080;42.676;23.372;2023-05-16T00:09:06;21.67;;;17.97;;
8074;SDS011;4080;42.676;23.372;2023-05-16T00:11:34;21.77;;;19.33;;
8074;SDS011;4080;42.676;23.372;2023-05-16T00:14:00;19.10;;;17.07;;
8074;SDS011;4080;42.676;23.372;2023-05-16T00:16:27;22.17;;;19.00;;
8074;SDS011;4080;42.676;23.372;2023-05-16T00:18:54;21.00;;;17.93;;
8074;SDS011;4080;42.676;23.372;2023-05-16T00:21:22;21.90;;;19.47;;
8074;SDS011;4080;42.676;23.372;2023-05-16T00:23:49;21.93;;;19.63;;
8074;SDS011;4080;42.676;23.372;2023-05-16T00:26:16;22.97;;;19.73;;
8074;SDS011;4080;42.676;23.372;2023-05-16T00:28:44;20.23;;;18.17;;
8074;SDS011;4080;42.676;23.372;2023-05-16T00:31:11;22.33;;;20.03;;
8074;SDS011;4080;42.676;23.372;2023-05-16T00:33:38;22.40;;;20.20;;
8074;SDS011;4080;42.676;23.372;2023-05-16T00:36:05;21.77;;;19.57;;
8074;SDS011;4080;42.676;23.372;2023-05-16T00:38:31;21.10;;;18.87;;
8074;SDS011;4080;42.676;23.372;2023-05-16T00:40:58;23.43;;;20.20;;
8074;SDS011;4080;42.676;23.372;2023-05-16T00:43:25;22.30;;;20.03;;
8074;SDS011;4080;42.676;23.372;2023-05-16T00:45:53;21.07;;;19.00;;
8074;SDS011;4080;42.676;23.372;2023-05-16T00:48:21;20.83;;;18.63;;
8074;SDS011;4080;42.676;23.372;2023-05-16T00:50:49;23.67;;;18.73;;
8074;SDS011;4080;42.676;23.372;2023-05-16T00:53:17;21.73;;;19.40;;
8074;SDS011;4080;42.676;23.372;2023-05-16T00:55:44;21.03;;;18.93;;
8074;SDS011;4080;42.676;23.372;2023-05-16T00:58:11;20.70;;;17.87;;
8074;SDS011;4080;42.676;23.372;2023-05-16T01:00:38;20.10;;;18.00;;
8074;SDS011;4080;42.676;23.372;2023-05-16T01:03:06;20.93;;;18.67;;
8074;SDS011;4080;42.676;23.372;2023-05-16T01:05:32;21.53;;;18.80;;
8074;SDS011;4080;42.676;23.372;2023-05-16T01:07:59;21.73;;;19.43;;
8074;SDS011;4080;42.676;23.372;2023-05-16T01:10:26;21.30;;;18.93;;
8074;SDS011;4080;42.676;23.372;2023-05-16T01:13:05;22.13;;;19.83;;
8074;SDS011;4080;42.676;23.372;2023-05-16T01:15:38;20.87;;;18.17;;
8074;SDS011;4080;42.676;23.372;2023-05-16T01:18:16;21.00;;;18.53;;
8074;SDS011;4080;42.676;23.372;2023-05-16T01:20:52;21.07;;;18.80;;
8074;SDS011;4080;42.676;23.372;2023-05-16T01:23:38;20.73;;;17.97;;
8074;SDS011;4080;42.676;23.372;2023-05-16T01:26:17;19.53;;;17.57;;
8074;SDS011;4080;42.676;23.372;2023-05-16T01:28:46;20.07;;;18.07;;
8074;SDS011;4080;42.676;23.372;2023-05-16T01:31:14;19.63;;;17.63;;
8074;SDS011;4080;42.676;23.372;2023-05-16T01:33:41;21.23;;;17.43;;
8074;SDS011;4080;42.676;23.372;2023-05-16T01:36:10;19.63;;;17.80;;
8074;SDS011;4080;42.676;23.372;2023-05-16T01:38:44;20.50;;;18.30;;
8074;SDS011;4080;42.676;23.372;2023-05-16T01:41:19;20.43;;;18.17;;
8074;SDS011;4080;42.676;23.372;2023-05-16T01:43:51;21.93;;;18.47;;
8074;SDS011;4080;42.676;23.372;2023-05-16T01:46:26;24.30;;;18.83;;
8074;SDS011;4080;42.676;23.372;2023-05-16T01:48:57;19.60;;;16.17;;
8074;SDS011;4080;42.676;23.372;2023-05-16T01:51:31;21.17;;;16.93;;
8074;SDS011;4080;42.676;23.372;2023-05-16T01:53:59;21.13;;;17.50;;
8074;SDS011;4080;42.676;23.372;2023-05-16T01:56:32;18.87;;;16.50;;
8074;SDS011;4080;42.676;23.372;2023-05-16T01:59:02;23.77;;;17.57;;
8074;SDS011;4080;42.676;23.372;2023-05-16T02:01:30;18.50;;;16.50;;
8074;SDS011;4080;42.676;23.372;2023-05-16T02:03:57;18.97;;;16.57;;
8074;SDS011;4080;42.676;23.372;2023-05-16T02:06:24;19.47;;;16.43;;
8074;SDS011;4080;42.676;23.372;2023-05-16T02:08:51;18.40;;;16.40;;
8074;SDS011;4080;42.676;23.372;2023-05-16T02:11:18;19.07;;;16.90;;
8074;SDS011;4080;42.676;23.372;2023-05-16T02:13:46;18.63;;;16.27;;
8074;SDS011;4080;42.676;23.372;2023-05-16T02:16:13;17.70;;;15.77;;
8074;SDS011;4080;42.676;23.372;2023-05-16T02:18:39;21.97;;;15.80;;
8074;SDS011;4080;42.676;23.372;2023-05-16T02:21:06;17.37;;;15.47;;
8074;SDS011;4080;42.676;23.372;2023-05-16T02:23:33;18.03;;;15.53;;
8074;SDS011;4080;42.676;23.372;2023-05-16T02:25:59;18.07;;;15.07;;
8074;SDS011;4080;42.676;23.372;2023-05-16T02:28:26;16.20;;;14.57;;
8074;SDS011;4080;42.676;23.372;2023-05-16T02:30:58;16.13;;;14.60;;
8074;SDS011;4080;42.676;23.372;2023-05-16T02:33:25;16.77;;;14.33;;
8074;SDS011;4080;42.676;23.372;2023-05-16T02:35:52;19.43;;;14.43;;
8074;SDS011;4080;42.676;23.372;2023-05-16T02:38:19;15.20;;;13.57;;
8074;SDS011;4080;42.676;23.372;2023-05-16T02:40:46;15.23;;;13.53;;
8074;SDS011;4080;42.676;23.372;2023-05-16T02:43:13;17.17;;;14.03;;
8074;SDS011;4080;42.676;23.372;2023-05-16T02:45:40;17.40;;;12.60;;
8074;SDS011;4080;42.676;23.372;2023-05-16T02:48:08;15.37;;;13.73;;
8074;SDS011;4080;42.676;23.372;2023-05-16T02:50:36;17.63;;;14.07;;
8074;SDS011;4080;42.676;23.372;2023-05-16T02:53:04;15.83;;;12.57;;
8074;SDS011;4080;42.676;23.372;2023-05-16T02:55:30;14.77;;;13.00;;
8074;SDS011;4080;42.676;23.372;2023-05-16T02:57:58;15.83;;;12.37;;
8074;SDS011;4080;42.676;23.372;2023-05-16T03:00:24;16.13;;;12.47;;
8074;SDS011;4080;42.676;23.372;2023-05-16T03:02:51;15.57;;;13.37;;
8074;SDS011;4080;42.676;23.372;2023-05-16T03:05:19;15.90;;;13.47;;
8074;SDS011;4080;42.676;23.372;2023-05-16T03:07:46;15.93;;;12.63;;
8074;SDS011;4080;42.676;23.372;2023-05-16T03:10:12;16.30;;;12.40;;
8074;SDS011;4080;42.676;23.372;2023-05-16T03:12:39;15.17;;;12.27;;
8074;SDS011;4080;42.676;23.372;2023-05-16T03:15:06;14.93;;;11.47;;
8074;SDS011;4080;42.676;23.372;2023-05-16T03:17:33;15.07;;;12.90;;
8074;SDS011;4080;42.676;23.372;2023-05-16T03:20:00;18.73;;;12.17;;
8074;SDS011;4080;42.676;23.372;2023-05-16T03:22:29;14.63;;;13.10;;
8074;SDS011;4080;42.676;23.372;2023-05-16T03:24:55;16.10;;;12.70;;
8074;SDS011;4080;42.676;23.372;2023-05-16T03:27:22;14.17;;;12.47;;
8074;SDS011;4080;42.676;23.372;2023-05-16T03:29:49;14.67;;;12.73;;
8074;SDS011;4080;42.676;23.372;2023-05-16T03:32:15;18.47;;;13.20;;
8074;SDS011;4080;42.676;23.372;2023-05-16T03:34:42;16.90;;;13.13;;
8074;SDS011;4080;42.676;23.372;2023-05-16T03:37:09;14.30;;;12.80;;
8074;SDS011;4080;42.676;23.372;2023-05-16T03:39:40;21.77;;;13.90;;
8074;SDS011;4080;42.676;23.372;2023-05-16T03:42:06;14.50;;;13.00;;
8074;SDS011;4080;42.676;23.372;2023-05-16T03:44:34;17.27;;;13.83;;
8074;SDS011;4080;42.676;23.372;2023-05-16T03:47:00;16.07;;;13.67;;
8074;SDS011;4080;42.676;23.372;2023-05-16T03:49:27;18.17;;;14.33;;
8074;SDS011;4080;42.676;23.372;2023-05-16T03:51:53;17.10;;;13.97;;
8074;SDS011;4080;42.676;23.372;2023-05-16T03:54:21;16.90;;;14.17;;
8074;SDS011;4080;42.676;23.372;2023-05-16T03:56:49;17.00;;;14.27;;
8074;SDS011;4080;42.676;23.372;2023-05-16T03:59:16;15.73;;;13.93;;
8074;SDS011;4080;42.676;23.372;2023-05-16T04:01:42;17.03;;;14.67;;
8074;SDS011;4080;42.676;23.372;2023-05-16T04:04:09;16.70;;;14.33;;
8074;SDS011;4080;42.676;23.372;2023-05-16T04:06:36;19.37;;;15.00;;
8074;SDS011;4080;42.676;23.372;2023-05-16T04:09:02;18.00;;;15.10;;
8074;SDS011;4080;42.676;23.372;2023-05-16T04:11:30;17.70;;;14.40;;
8074;SDS011;4080;42.676;23.372;2023-05-16T04:13:58;15.87;;;14.27;;
8074;SDS011;4080;42.676;23.372;2023-05-16T04:16:25;17.47;;;15.77;;
8074;SDS011;4080;42.676;23.372;2023-05-16T04:18:52;16.83;;;15.03;;
8074;SDS011;4080;42.676;23.372;2023-05-16T04:21:20;16.30;;;14.60;;
8074;SDS011;4080;42.676;23.372;2023-05-16T04:23:46;16.90;;;15.20;;
8074;SDS011;4080;42.676;23.372;2023-05-16T04:26:13;18.80;;;15.60;;
8074;SDS011;4080;42.676;23.372;2023-05-16T04:28:40;18.93;;;14.80;;
8074;SDS011;4080;42.676;23.372;2023-05-16T04:31:08;17.10;;;14.83;;
8074;SDS011;4080;42.676;23.372;2023-05-16T04:33:35;17.50;;;15.70;;
8074;SDS011;4080;42.676;23.372;2023-05-16T04:36:02;20.43;;;16.13;;
8074;SDS011;4080;42.676;23.372;2023-05-16T04:38:30;21.57;;;15.43;;
8074;SDS011;4080;42.676;23.372;2023-05-16T04:40:56;20.90;;;15.07;;
8074;SDS011;4080;42.676;23.372;2023-05-16T04:43:23;17.63;;;15.43;;
8074;SDS011;4080;42.676;23.372;2023-05-16T04:45:50;19.63;;;15.20;;
8074;SDS011;4080;42.676;23.372;2023-05-16T04:48:19;20.20;;;15.67;;
8074;SDS011;4080;42.676;23.372;2023-05-16T04:50:46;15.97;;;14.27;;
8074;SDS011;4080;42.676;23.372;2023-05-16T04:53:13;18.43;;;15.20;;
8074;SDS011;4080;42.676;23.372;2023-05-16T04:55:40;20.93;;;15.83;;
8074;SDS011;4080;42.676;23.372;2023-05-16T04:58:06;17.90;;;15.17;;
8074;SDS011;4080;42.676;23.372;2023-05-16T05:00:33;17.67;;;15.00;;
8074;SDS011;4080;42.676;23.372;2023-05-16T05:03:00;16.80;;;14.90;;
8074;SDS011;4080;42.676;23.372;2023-05-16T05:05:28;16.33;;;14.13;;
8074;SDS011;4080;42.676;23.372;2023-05-16T05:07:56;19.47;;;15.83;;
8074;SDS011;4080;42.676;23.372;2023-05-16T05:10:23;20.23;;;16.00;;
8074;SDS011;4080;42.676;23.372;2023-05-16T05:12:51;19.60;;;15.13;;
8074;SDS011;4080;42.676;23.372;2023-05-16T05:15:18;24.30;;;16.13;;
8074;SDS011;4080;42.676;23.372;2023-05-16T05:17:45;19.93;;;15.77;;
8074;SDS011;4080;42.676;23.372;2023-05-16T05:20:11;24.40;;;16.07;;
8074;SDS011;4080;42.676;23.372;2023-05-16T05:22:40;19.77;;;16.13;;
8074;SDS011;4080;42.676;23.372;2023-05-16T05:25:06;22.10;;;16.27;;
8074;SDS011;4080;42.676;23.372;2023-05-16T05:27:34;21.47;;;16.20;;
8074;SDS011;4080;42.676;23.372;2023-05-16T05:30:01;18.70;;;15.07;;
8074;SDS011;4080;42.676;23.372;2023-05-16T05:32:27;25.00;;;16.47;;
8074;SDS011;4080;42.676;23.372;2023-05-16T05:34:55;21.07;;;15.77;;
8074;SDS011;4080;42.676;23.372;2023-05-16T05:37:21;19.40;;;15.23;;
8074;SDS011;4080;42.676;23.372;2023-05-16T05:39:50;27.53;;;16.57;;
8074;SDS011;4080;42.676;23.372;2023-05-16T05:42:16;19.23;;;13.93;;
8074;SDS011;4080;42.676;23.372;2023-05-16T05:44:43;18.73;;;14.37;;
8074;SDS011;4080;42.676;23.372;2023-05-16T05:47:10;20.53;;;14.10;;
8074;SDS011;4080;42.676;23.372;2023-05-16T05:49:36;13.73;;;12.23;;
8074;SDS011;4080;42.676;23.372;2023-05-16T05:52:03;19.50;;;14.47;;
8074;SDS011;4080;42.676;23.372;2023-05-16T05:54:30;18.07;;;13.50;;
8074;SDS011;4080;42.676;23.372;2023-05-16T05:56:58;18.73;;;14.77;;
8074;SDS011;4080;42.676;23.372;2023-05-16T05:59:25;20.67;;;15.70;;
8074;SDS011;4080;42.676;23.372;2023-05-16T06:01:52;18.73;;;14.47;;
8074;SDS011;4080;42.676;23.372;2023-05-16T06:04:19;19.70;;;13.80;;
8074;SDS011;4080;42.676;23.372;2023-05-16T06:06:46;16.33;;;14.50;;
8074;SDS011;4080;42.676;23.372;2023-05-16T06:09:14;20.23;;;13.10;;
8074;SDS011;4080;42.676;23.372;2023-05-16T06:11:40;17.67;;;12.87;;
8074;SDS011;4080;42.676;23.372;2023-05-16T06:14:11;17.63;;;10.50;;
8074;SDS011;4080;42.676;23.372;2023-05-16T06:16:37;12.00;;;9.50;;
8074;SDS011;4080;42.676;23.372;2023-05-16T06:19:04;15.87;;;12.70;;
8074;SDS011;4080;42.676;23.372;2023-05-16T06:21:31;14.50;;;11.53;;
8074;SDS011;4080;42.676;23.372;2023-05-16T06:23:58;13.93;;;12.20;;
8074;SDS011;4080;42.676;23.372;2023-05-16T06:26:25;15.53;;;12.40;;
8074;SDS011;4080;42.676;23.372;2023-05-16T06:28:51;15.47;;;12.60;;
8074;SDS011;4080;42.676;23.372;2023-05-16T06:31:19;19.27;;;12.43;;
8074;SDS011;4080;42.676;23.372;2023-05-16T06:33:46;14.60;;;12.50;;
8074;SDS011;4080;42.676;23.372;2023-05-16T06:36:12;14.63;;;12.13;;
8074;SDS011;4080;42.676;23.372;2023-05-16T06:38:39;19.70;;;12.27;;
8074;SDS011;4080;42.676;23.372;2023-05-16T06:41:06;19.37;;;12.60;;
8074;SDS011;4080;42.676;23.372;2023-05-16T06:43:32;15.23;;;13.13;;
8074;SDS011;4080;42.676;23.372;2023-05-16T06:45:59;14.40;;;12.00;;
8074;SDS011;4080;42.676;23.372;2023-05-16T06:48:27;17.30;;;12.33;;
8074;SDS011;4080;42.676;23.372;2023-05-16T06:50:54;19.10;;;12.47;;
8074;SDS011;4080;42.676;23.372;2023-05-16T06:53:21;17.20;;;11.80;;
8074;SDS011;4080;42.676;23.372;2023-05-16T06:55:48;21.03;;;12.73;;
8074;SDS011;4080;42.676;23.372;2023-05-16T06:58:15;13.07;;;11.43;;
8074;SDS011;4080;42.676;23.372;2023-05-16T07:00:42;18.27;;;13.07;;
8074;SDS011;4080;42.676;23.372;2023-05-16T07:03:09;16.97;;;12.50;;
8074;SDS011;4080;42.676;23.372;2023-05-16T07:05:37;14.77;;;12.10;;
8074;SDS011;4080;42.676;23.372;2023-05-16T07:08:04;16.80;;;11.73;;
8074;SDS011;4080;42.676;23.372;2023-05-16T07:10:30;13.37;;;11.57;;
8074;SDS011;4080;42.676;23.372;2023-05-16T07:12:57;14.70;;;11.03;;
8074;SDS011;4080;42.676;23.372;2023-05-16T07:15:25;13.03;;;11.20;;
8074;SDS011;4080;42.676;23.372;2023-05-16T07:17:52;14.83;;;10.87;;
8074;SDS011;4080;42.676;23.372;2023-05-16T07:20:18;15.13;;;11.17;;
8074;SDS011;4080;42.676;23.372;2023-05-16T07:22:47;13.10;;;11.70;;
8074;SDS011;4080;42.676;23.372;2023-05-16T07:25:14;15.63;;;10.87;;
8074;SDS011;4080;42.676;23.372;2023-05-16T07:27:41;16.10;;;11.30;;
8074;SDS011;4080;42.676;23.372;2023-05-16T07:30:09;13.57;;;11.80;;
8074;SDS011;4080;42.676;23.372;2023-05-16T07:32:37;16.40;;;11.60;;
8074;SDS011;4080;42.676;23.372;2023-05-16T07:35:04;12.63;;;10.27;;
8074;SDS011;4080;42.676;23.372;2023-05-16T07:37:32;15.17;;;10.57;;
8074;SDS011;4080;42.676;23.372;2023-05-16T07:40:00;15.27;;;11.60;;
8074;SDS011;4080;42.676;23.372;2023-05-16T07:42:27;12.63;;;10.60;;
8074;SDS011;4080;42.676;23.372;2023-05-16T07:44:54;15.10;;;10.70;;
8074;SDS011;4080;42.676;23.372;2023-05-16T07:47:21;13.00;;;10.83;;
8074;SDS011;4080;42.676;23.372;2023-05-16T07:49:47;16.40;;;10.90;;
8074;SDS011;4080;42.676;23.372;2023-05-16T07:52:14;15.30;;;10.90;;
8074;SDS011;4080;42.676;23.372;2023-05-16T07:54:41;15.80;;;11.43;;
8074;SDS011;4080;42.676;23.372;2023-05-16T07:57:09;14.60;;;11.57;;
8074;SDS011;4080;42.676;23.372;2023-05-16T07:59:35;16.93;;;12.27;;
8074;SDS011;4080;42.676;23.372;2023-05-16T08:02:02;15.77;;;12.07;;
8074;SDS011;4080;42.676;23.372;2023-05-16T08:04:29;17.87;;;11.43;;
8074;SDS011;4080;42.676;23.372;2023-05-16T08:06:56;13.87;;;10.77;;
8074;SDS011;4080;42.676;23.372;2023-05-16T08:09:23;17.30;;;10.90;;
8074;SDS011;4080;42.676;23.372;2023-05-16T08:11:50;16.13;;;11.53;;
8074;SDS011;4080;42.676;23.372;2023-05-16T08:14:18;11.73;;;10.47;;
8074;SDS011;4080;42.676;23.372;2023-05-16T08:16:45;11.60;;;10.40;;
8074;SDS011;4080;42.676;23.372;2023-05-16T08:19:12;14.87;;;10.87;;
8074;SDS011;4080;42.676;23.372;2023-05-16T08:21:38;14.70;;;10.50;;
8074;SDS011;4080;42.676;23.372;2023-05-16T08:24:06;17.37;;;11.57;;
8074;SDS011;4080;42.676;23.372;2023-05-16T08:26:35;18.50;;;12.10;;
8074;SDS011;4080;42.676;23.372;2023-05-16T08:29:02;15.47;;;11.80;;
8074;SDS011;4080;42.676;23.372;2023-05-16T08:31:30;15.43;;;10.87;;
8074;SDS011;4080;42.676;23.372;2023-05-16T08:33:57;12.63;;;11.33;;
8074;SDS011;4080;42.676;23.372;2023-05-16T08:36:25;16.67;;;11.27;;
8074;SDS011;4080;42.676;23.372;2023-05-16T08:38:52;14.33;;;11.27;;
8074;SDS011;4080;42.676;23.372;2023-05-16T08:41:19;17.80;;;11.00;;
8074;SDS011;4080;42.676;23.372;2023-05-16T08:43:46;16.63;;;10.63;;
8074;SDS011;4080;42.676;23.372;2023-05-16T08:46:13;14.03;;;11.20;;
8074;SDS011;4080;42.676;23.372;2023-05-16T08:48:42;13.53;;;10.37;;
8074;SDS011;4080;42.676;23.372;2023-05-16T08:51:11;14.87;;;9.73;;
8074;SDS011;4080;42.676;23.372;2023-05-16T08:53:40;19.27;;;10.53;;
8074;SDS011;4080;42.676;23.372;2023-05-16T08:56:11;13.13;;;9.67;;
8074;SDS011;4080;42.676;23.372;2023-05-16T08:58:38;15.80;;;9.73;;
8074;SDS011;4080;42.676;23.372;2023-05-16T09:01:05;13.57;;;11.37;;
8074;SDS011;4080;42.676;23.372;2023-05-16T09:03:34;16.40;;;10.20;;
8074;SDS011;4080;42.676;23.372;2023-05-16T09:06:04;12.03;;;9.20;;
8074;SDS011;4080;42.676;23.372;2023-05-16T09:08:31;13.70;;;9.50;;
8074;SDS011;4080;42.676;23.372;2023-05-16T09:10:58;17.87;;;9.83;;
8074;SDS011;4080;42.676;23.372;2023-05-16T09:13:25;14.30;;;9.63;;
8074;SDS011;4080;42.676;23.372;2023-05-16T09:16:07;15.63;;;9.83;;
8074;SDS011;4080;42.676;23.372;2023-05-16T09:18:35;11.80;;;9.03;;
8074;SDS011;4080;42.676;23.372;2023-05-16T09:21:03;14.60;;;9.27;;
8074;SDS011;4080;42.676;23.372;2023-05-16T09:23:30;13.47;;;10.40;;
8074;SDS011;4080;42.676;23.372;2023-05-16T09:25:57;15.10;;;10.43;;
8074;SDS011;4080;42.676;23.372;2023-05-16T09:28:24;13.40;;;10.13;;
8074;SDS011;4080;42.676;23.372;2023-05-16T09:30:51;15.23;;;10.10;;
8074;SDS011;4080;42.676;23.372;2023-05-16T09:33:19;18.97;;;10.87;;
8074;SDS011;4080;42.676;23.372;2023-05-16T09:35:53;11.40;;;9.00;;
8074;SDS011;4080;42.676;23.372;2023-05-16T09:38:23;14.87;;;10.03;;
8074;SDS011;4080;42.676;23.372;2023-05-16T09:40:51;13.47;;;9.73;;
8074;SDS011;4080;42.676;23.372;2023-05-16T09:43:21;13.27;;;8.90;;
8074;SDS011;4080;42.676;23.372;2023-05-16T09:45:50;11.53;;;8.77;;
8074;SDS011;4080;42.676;23.372;2023-05-16T09:48:18;11.97;;;9.03;;
8074;SDS011;4080;42.676;23.372;2023-05-16T09:50:48;10.33;;;9.00;;
8074;SDS011;4080;42.676;23.372;2023-05-16T09:53:24;11.87;;;9.17;;
8074;SDS011;4080;42.676;23.372;2023-05-16T09:55:58;12.47;;;8.93;;
8074;SDS011;4080;42.676;23.372;2023-05-16T09:58:27;12.00;;;8.50;;
8074;SDS011;4080;42.676;23.372;2023-05-16T10:00:55;12.60;;;8.63;;
8074;SDS011;4080;42.676;23.372;2023-05-16T10:03:22;10.17;;;8.17;;
8074;SDS011;4080;42.676;23.372;2023-05-16T10:05:50;12.53;;;8.73;;
8074;SDS011;4080;42.676;23.372;2023-05-16T10:08:18;13.43;;;8.93;;
8074;SDS011;4080;42.676;23.372;2023-05-16T10:10:47;14.27;;;8.77;;
8074;SDS011;4080;42.676;23.372;2023-05-16T10:13:16;10.37;;;9.07;;
8074;SDS011;4080;42.676;23.372;2023-05-16T10:15:45;12.73;;;8.37;;
8074;SDS011;4080;42.676;23.372;2023-05-16T10:18:13;12.70;;;8.67;;
8074;SDS011;4080;42.676;23.372;2023-05-16T10:20:42;12.30;;;8.60;;
8074;SDS011;4080;42.676;23.372;2023-05-16T10:23:11;10.40;;;8.90;;
8074;SDS011;4080;42.676;23.372;2023-05-16T10:25:42;11.70;;;9.43;;
8074;SDS011;4080;42.676;23.372;2023-05-16T10:28:11;12.93;;;8.70;;
8074;SDS011;4080;42.676;23.372;2023-05-16T10:30:39;13.57;;;9.70;;
8074;SDS011;4080;42.676;23.372;2023-05-16T10:33:08;12.67;;;8.50;;
8074;SDS011;4080;42.676;23.372;2023-05-16T10:35:37;14.20;;;8.90;;
8074;SDS011;4080;42.676;23.372;2023-05-16T10:38:04;15.37;;;9.43;;
8074;SDS011;4080;42.676;23.372;2023-05-16T10:40:31;19.27;;;9.40;;
8074;SDS011;4080;42.676;23.372;2023-05-16T10:42:59;10.87;;;8.63;;
8074;SDS011;4080;42.676;23.372;2023-05-16T10:45:29;13.17;;;8.57;;
8074;SDS011;4080;42.676;23.372;2023-05-16T10:47:56;17.17;;;8.93;;
8074;SDS011;4080;42.676;23.372;2023-05-16T10:50:34;14.07;;;8.33;;
8074;SDS011;4080;42.676;23.372;2023-05-16T10:53:12;14.27;;;8.03;;
8074;SDS011;4080;42.676;23.372;2023-05-16T10:55:44;12.60;;;8.00;;
8074;SDS011;4080;42.676;23.372;2023-05-16T10:58:17;14.80;;;8.37;;
8074;SDS011;4080;42.676;23.372;2023-05-16T11:00:49;11.40;;;9.37;;
8074;SDS011;4080;42.676;23.372;2023-05-16T11:06:43;10.80;;;9.40;;
8074;SDS011;4080;42.676;23.372;2023-05-16T11:09:19;13.30;;;9.17;;
8074;SDS011;4080;42.676;23.372;2023-05-16T11:11:53;13.53;;;9.10;;
8074;SDS011;4080;42.676;23.372;2023-05-16T11:14:27;13.87;;;9.43;;
8074;SDS011;4080;42.676;23.372;2023-05-16T11:17:06;11.57;;;9.67;;
8074;SDS011;4080;42.676;23.372;2023-05-16T11:19:34;11.30;;;8.87;;
8074;SDS011;4080;42.676;23.372;2023-05-16T11:22:06;12.50;;;9.57;;
8074;SDS011;4080;42.676;23.372;2023-05-16T11:24:47;12.83;;;9.30;;
8074;SDS011;4080;42.676;23.372;2023-05-16T11:27:18;14.97;;;9.27;;
8074;SDS011;4080;42.676;23.372;2023-05-16T11:29:46;10.67;;;8.50;;
8074;SDS011;4080;42.676;23.372;2023-05-16T11:32:17;10.30;;;9.20;;
8074;SDS011;4080;42.676;23.372;2023-05-16T11:34:45;11.37;;;9.60;;
8074;SDS011;4080;42.676;23.372;2023-05-16T11:37:12;12.27;;;8.57;;
8074;SDS011;4080;42.676;23.372;2023-05-16T11:39:39;12.53;;;9.00;;
8074;SDS011;4080;42.676;23.372;2023-05-16T11:42:06;16.50;;;9.57;;
8074;SDS011;4080;42.676;23.372;2023-05-16T11:44:33;15.90;;;9.33;;
8074;SDS011;4080;42.676;23.372;2023-05-16T11:47:00;14.37;;;9.67;;
8074;SDS011;4080;42.676;23.372;2023-05-16T11:49:28;17.57;;;11.67;;
8074;SDS011;4080;42.676;23.372;2023-05-16T11:51:55;15.83;;;10.63;;
8074;SDS011;4080;42.676;23.372;2023-05-16T11:54:22;17.77;;;9.37;;
8074;SDS011;4080;42.676;23.372;2023-05-16T11:56:49;15.47;;;9.53;;
8074;SDS011;4080;42.676;23.372;2023-05-16T11:59:16;15.13;;;10.20;;
8074;SDS011;4080;42.676;23.372;2023-05-16T12:01:44;25.17;;;16.57;;
8074;SDS011;4080;42.676;23.372;2023-05-16T12:04:14;15.47;;;10.77;;
8074;SDS011;4080;42.676;23.372;2023-05-16T12:06:43;15.63;;;8.80;;
8074;SDS011;4080;42.676;23.372;2023-05-16T12:09:11;15.30;;;8.27;;
8074;SDS011;4080;42.676;23.372;2023-05-16T12:11:38;12.93;;;9.17;;
8074;SDS011;4080;42.676;23.372;2023-05-16T12:14:06;14.70;;;8.50;;
8074;SDS011;4080;42.676;23.372;2023-05-16T12:16:35;15.37;;;8.80;;
8074;SDS011;4080;42.676;23.372;2023-05-16T12:19:03;17.70;;;9.30;;
8074;SDS011;4080;42.676;23.372;2023-05-16T12:21:31;15.60;;;9.10;;
8074;SDS011;4080;42.676;23.372;2023-05-16T12:23:59;15.33;;;8.80;;
8074;SDS011;4080;42.676;23.372;2023-05-16T12:26:27;11.10;;;8.20;;
8074;SDS011;4080;42.676;23.372;2023-05-16T12:28:55;16.23;;;8.60;;
8074;SDS011;4080;42.676;23.372;2023-05-16T12:31:24;15.70;;;8.47;;
8074;SDS011;4080;42.676;23.372;2023-05-16T12:33:51;13.23;;;7.37;;
8074;SDS011;4080;42.676;23.372;2023-05-16T12:36:19;15.63;;;8.10;;
8074;SDS011;4080;42.676;23.372;2023-05-16T12:38:45;11.50;;;8.37;;
8074;SDS011;4080;42.676;23.372;2023-05-16T12:41:17;12.97;;;8.70;;
8074;SDS011;4080;42.676;23.372;2023-05-16T12:43:47;11.17;;;8.10;;
8074;SDS011;4080;42.676;23.372;2023-05-16T12:46:14;11.13;;;7.97;;
8074;SDS011;4080;42.676;23.372;2023-05-16T12:48:41;15.67;;;8.70;;
8074;SDS011;4080;42.676;23.372;2023-05-16T12:51:11;14.73;;;8.50;;
8074;SDS011;4080;42.676;23.372;2023-05-16T12:53:40;12.87;;;8.37;;
8074;SDS011;4080;42.676;23.372;2023-05-16T12:56:09;18.10;;;9.30;;
8074;SDS011;4080;42.676;23.372;2023-05-16T12:58:37;19.73;;;9.43;;
8074;SDS011;4080;42.676;23.372;2023-05-16T13:01:04;12.57;;;9.53;;
8074;SDS011;4080;42.676;23.372;2023-05-16T13:03:31;15.27;;;10.03;;
8074;SDS011;4080;42.676;23.372;2023-05-16T13:05:59;13.63;;;8.83;;
8074;SDS011;4080;42.676;23.372;2023-05-16T13:08:28;13.20;;;9.03;;
8074;SDS011;4080;42.676;23.372;2023-05-16T13:10:55;16.37;;;10.13;;
8074;SDS011;4080;42.676;23.372;2023-05-16T13:13:21;14.77;;;9.90;;
8074;SDS011;4080;42.676;23.372;2023-05-16T13:15:49;15.10;;;9.23;;
8074;SDS011;4080;42.676;23.372;2023-05-16T13:18:16;13.43;;;8.27;;
8074;SDS011;4080;42.676;23.372;2023-05-16T13:20:43;16.67;;;9.87;;
8074;SDS011;4080;42.676;23.372;2023-05-16T13:23:10;12.20;;;8.70;;
8074;SDS011;4080;42.676;23.372;2023-05-16T13:25:36;15.37;;;8.83;;
8074;SDS011;4080;42.676;23.372;2023-05-16T13:28:03;17.20;;;9.37;;
8074;SDS011;4080;42.676;23.372;2023-05-16T13:30:30;15.33;;;9.33;;
8074;SDS011;4080;42.676;23.372;2023-05-16T13:32:58;12.33;;;8.87;;
8074;SDS011;4080;42.676;23.372;2023-05-16T13:35:24;10.93;;;9.23;;
8074;SDS011;4080;42.676;23.372;2023-05-16T13:37:52;15.13;;;8.93;;
8074;SDS011;4080;42.676;23.372;2023-05-16T13:40:19;16.60;;;9.20;;
8074;SDS011;4080;42.676;23.372;2023-05-16T13:42:45;12.00;;;8.87;;
8074;SDS011;4080;42.676;23.372;2023-05-16T13:45:13;14.47;;;9.03;;
8074;SDS011;4080;42.676;23.372;2023-05-16T13:47:40;16.47;;;9.00;;
8074;SDS011;4080;42.676;23.372;2023-05-16T13:50:08;11.80;;;9.33;;
8074;SDS011;4080;42.676;23.372;2023-05-16T13:52:36;19.73;;;11.13;;
8074;SDS011;4080;42.676;23.372;2023-05-16T13:55:04;21.77;;;10.43;;
8074;SDS011;4080;42.676;23.372;2023-05-16T13:57:32;21.30;;;10.30;;
8074;SDS011;4080;42.676;23.372;2023-05-16T13:59:58;19.73;;;10.00;;
8074;SDS011;4080;42.676;23.372;2023-05-16T14:02:25;22.77;;;11.27;;
8074;SDS011;4080;42.676;23.372;2023-05-16T14:04:52;17.03;;;11.20;;
8074;SDS011;4080;42.676;23.372;2023-05-16T14:07:20;22.43;;;10.63;;
8074;SDS011;4080;42.676;23.372;2023-05-16T14:09:46;21.23;;;11.73;;
8074;SDS011;4080;42.676;23.372;2023-05-16T14:12:13;21.50;;;10.97;;
8074;SDS011;4080;42.676;23.372;2023-05-16T14:14:40;20.40;;;11.37;;
8074;SDS011;4080;42.676;23.372;2023-05-16T14:17:06;22.50;;;11.20;;
8074;SDS011;4080;42.676;23.372;2023-05-16T14:19:33;19.40;;;10.57;;
8074;SDS011;4080;42.676;23.372;2023-05-16T14:22:00;24.07;;;11.90;;
8074;SDS011;4080;42.676;23.372;2023-05-16T14:24:28;24.17;;;11.50;;
8074;SDS011;4080;42.676;23.372;2023-05-16T14:26:55;19.60;;;10.53;;
8074;SDS011;4080;42.676;23.372;2023-05-16T14:29:21;21.67;;;10.77;;
8074;SDS011;4080;42.676;23.372;2023-05-16T14:31:49;20.90;;;10.50;;
8074;SDS011;4080;42.676;23.372;2023-05-16T14:34:16;24.37;;;11.60;;
8074;SDS011;4080;42.676;23.372;2023-05-16T14:36:43;25.37;;;11.37;;
8074;SDS011;4080;42.676;23.372;2023-05-16T14:39:29;17.83;;;11.43;;
8074;SDS011;4080;42.676;23.372;2023-05-16T14:41:56;23.73;;;11.97;;
8074;SDS011;4080;42.676;23.372;2023-05-16T14:44:23;19.97;;;11.50;;
8074;SDS011;4080;42.676;23.372;2023-05-16T14:46:49;23.23;;;11.97;;